createdAt,value
2022-07-28T00:01:11.494Z,56.20
2022-07-28T00:03:40.775Z,56.30
2022-07-28T00:06:09.653Z,56.30
2022-07-28T00:08:37.651Z,56.30
2022-07-28T00:11:05.530Z,56.30
2022-07-28T00:13:33.517Z,56.30
2022-07-28T00:16:01.447Z,56.30
2022-07-28T00:18:29.349Z,56.40
2022-07-28T00:20:58.991Z,56.50
2022-07-28T00:23:38.585Z,56.50
2022-07-28T00:26:08.678Z,56.60
2022-07-28T00:28:36.648Z,56.70
2022-07-28T00:31:04.979Z,56.70
2022-07-28T00:33:35.079Z,56.80
2022-07-28T00:36:04.811Z,56.80
2022-07-28T00:38:34.410Z,56.90
2022-07-28T00:41:12.393Z,57.00
2022-07-28T00:43:41.083Z,57.10
2022-07-28T00:46:09.866Z,57.20
2022-07-28T00:48:38.958Z,57.20
2022-07-28T00:51:09.926Z,57.20
2022-07-28T00:53:38.088Z,57.30
2022-07-28T00:56:07.289Z,57.40
2022-07-28T00:58:35.944Z,57.40
2022-07-28T01:01:04.977Z,57.40
2022-07-28T01:03:33.446Z,57.40
2022-07-28T01:06:11.534Z,57.50
2022-07-28T01:08:53.696Z,57.50
2022-07-28T01:11:27.120Z,57.60
2022-07-28T01:14:08.889Z,57.60
2022-07-28T01:16:52.861Z,57.70
2022-07-28T01:19:33.613Z,57.70
2022-07-28T01:22:04.358Z,57.70
2022-07-28T01:24:40.556Z,57.60
2022-07-28T01:27:11.677Z,57.70
2022-07-28T01:30:02.232Z,57.70
2022-07-28T01:32:36.313Z,57.70
2022-07-28T01:35:11.250Z,57.70
2022-07-28T01:37:44.277Z,57.60
2022-07-28T01:40:15.498Z,57.60
2022-07-28T01:42:47.900Z,57.60
2022-07-28T01:45:17.260Z,57.60
2022-07-28T01:47:47.798Z,57.70
2022-07-28T01:50:17.206Z,57.70
2022-07-28T01:52:48.395Z,57.60
2022-07-28T01:55:20.442Z,57.70
2022-07-28T01:57:49.647Z,57.90
2022-07-28T02:00:19.254Z,57.90
2022-07-28T02:02:51.042Z,57.90
2022-07-28T02:05:22.230Z,57.90
2022-07-28T02:07:52.300Z,58.10
2022-07-28T02:10:22.796Z,57.90
2022-07-28T02:12:51.583Z,57.90
2022-07-28T02:15:21.751Z,57.70
2022-07-28T02:17:54.080Z,57.70
2022-07-28T02:20:23.573Z,57.70
2022-07-28T02:22:53.784Z,57.70
2022-07-28T02:25:22.799Z,57.70
2022-07-28T02:27:54.418Z,57.70
2022-07-28T02:30:27.534Z,57.70
2022-07-28T02:32:58.662Z,57.70
2022-07-28T02:35:32.789Z,57.70
2022-07-28T02:38:07.337Z,57.70
2022-07-28T02:40:38.058Z,57.70
2022-07-28T02:43:11.141Z,57.80
2022-07-28T02:45:42.860Z,57.90
2022-07-28T02:48:14.357Z,57.90
2022-07-28T02:50:43.987Z,58.00
2022-07-28T02:53:16.529Z,58.00
2022-07-28T02:55:47.183Z,58.10
2022-07-28T02:58:16.616Z,58.20
2022-07-28T03:00:45.241Z,58.30
2022-07-28T03:03:15.916Z,58.40
2022-07-28T03:05:44.210Z,58.40
2022-07-28T03:08:12.263Z,58.50
2022-07-28T03:10:41.845Z,58.60
2022-07-28T03:13:09.847Z,58.60
2022-07-28T03:15:40.158Z,58.70
2022-07-28T03:18:08.596Z,58.80
2022-07-28T03:20:37.879Z,58.90
2022-07-28T03:23:06.548Z,58.90
2022-07-28T03:25:41.931Z,59.00
2022-07-28T03:28:13.941Z,59.10
2022-07-28T03:30:46.226Z,59.10
2022-07-28T03:33:14.320Z,59.10
2022-07-28T03:35:48.609Z,59.00
2022-07-28T03:38:22.538Z,59.20
2022-07-28T03:40:53.075Z,59.30
2022-07-28T03:43:23.442Z,59.30
2022-07-28T03:45:51.979Z,59.40
2022-07-28T03:48:23.302Z,59.40
2022-07-28T03:50:52.588Z,59.50
2022-07-28T03:53:23.807Z,59.60
2022-07-28T03:55:52.222Z,59.60
2022-07-28T03:58:20.431Z,59.60
2022-07-28T04:00:49.446Z,59.60
2022-07-28T04:03:22.085Z,59.70
2022-07-28T04:06:04.870Z,59.70
2022-07-28T04:08:32.816Z,59.80
2022-07-28T04:11:00.796Z,59.70
2022-07-28T04:13:28.706Z,59.80
2022-07-28T04:15:56.629Z,59.80
2022-07-28T04:18:24.579Z,59.80
2022-07-28T04:20:52.491Z,59.80
2022-07-28T04:23:22.356Z,59.90
2022-07-28T04:25:50.494Z,59.90
2022-07-28T04:28:18.371Z,59.90
2022-07-28T04:30:47.543Z,60.00
2022-07-28T04:33:15.516Z,60.00
2022-07-28T04:35:43.498Z,60.00
2022-07-28T04:38:13.894Z,59.90
2022-07-28T04:40:43.257Z,59.90
2022-07-28T04:43:11.335Z,59.90
2022-07-28T04:45:39.658Z,59.90
2022-07-28T04:48:14.815Z,59.90
2022-07-28T04:50:46.430Z,60.00
2022-07-28T04:53:14.554Z,59.90
2022-07-28T04:55:43.806Z,60.00
2022-07-28T04:58:12.495Z,60.00
2022-07-28T05:00:40.518Z,60.00
2022-07-28T05:03:08.444Z,60.10
2022-07-28T05:05:36.431Z,60.10
2022-07-28T05:08:04.643Z,60.20
2022-07-28T05:10:32.684Z,60.30
2022-07-28T05:13:06.832Z,60.20
2022-07-28T05:15:34.963Z,60.30
2022-07-28T05:18:02.988Z,60.10
2022-07-28T05:20:30.925Z,60.20
2022-07-28T05:22:58.844Z,60.30
2022-07-28T05:25:27.027Z,60.30
2022-07-28T05:27:55.723Z,60.40
2022-07-28T05:30:25.302Z,60.30
2022-07-28T05:32:59.159Z,59.80
2022-07-28T05:35:27.353Z,58.30
2022-07-28T05:37:55.302Z,56.90
2022-07-28T05:40:23.313Z,55.70
2022-07-28T05:42:51.292Z,54.40
2022-07-28T05:45:19.274Z,53.60
2022-07-28T05:47:49.920Z,53.50
2022-07-28T05:50:19.359Z,53.10
2022-07-28T05:52:47.920Z,52.00
2022-07-28T05:55:17.689Z,51.50
2022-07-28T05:57:46.071Z,51.90
2022-07-28T06:00:17.077Z,52.10
2022-07-28T06:02:47.149Z,51.50
2022-07-28T06:05:17.999Z,50.90
2022-07-28T06:07:46.439Z,49.60
2022-07-28T06:10:16.278Z,48.50
2022-07-28T06:12:45.663Z,47.80
2022-07-28T06:15:15.420Z,47.00
2022-07-28T06:17:43.670Z,46.70
2022-07-28T06:20:12.825Z,46.50
2022-07-28T06:22:46.798Z,47.10
2022-07-28T06:25:16.223Z,46.50
2022-07-28T06:27:46.029Z,47.50
2022-07-28T06:30:14.286Z,48.30
2022-07-28T06:32:42.261Z,49.60
2022-07-28T06:35:10.772Z,50.80
2022-07-28T06:37:39.005Z,51.70
2022-07-28T06:40:11.717Z,52.60
2022-07-28T06:42:39.697Z,53.20
2022-07-28T06:45:08.944Z,53.90
2022-07-28T06:47:37.390Z,54.20
2022-07-28T06:50:26.403Z,54.60
2022-07-28T06:52:55.338Z,55.10
2022-07-28T06:55:24.904Z,55.60
2022-07-28T06:57:54.333Z,56.20
2022-07-28T07:00:22.611Z,56.00
2022-07-28T07:02:50.588Z,56.50
2022-07-28T07:05:18.542Z,56.60
2022-07-28T07:07:46.441Z,56.70
2022-07-28T07:10:14.364Z,57.00
2022-07-28T07:12:43.711Z,56.90
2022-07-28T07:15:12.640Z,57.10
2022-07-28T07:17:41.967Z,57.30
2022-07-28T07:20:13.367Z,57.40
2022-07-28T07:22:45.469Z,57.40
2022-07-28T07:25:14.756Z,57.40
2022-07-28T07:27:44.027Z,57.60
2022-07-28T07:30:13.200Z,57.60
2022-07-28T07:32:41.647Z,57.60
2022-07-28T07:35:10.361Z,57.60
2022-07-28T07:37:38.255Z,57.70
2022-07-28T07:40:07.556Z,57.70
2022-07-28T07:42:35.672Z,57.70
2022-07-28T07:45:05.791Z,57.60
2022-07-28T07:47:33.683Z,57.70
2022-07-28T07:50:04.098Z,57.70
2022-07-28T07:52:32.578Z,57.80
2022-07-28T07:55:00.555Z,57.90
2022-07-28T07:57:29.723Z,57.90
2022-07-28T07:59:57.637Z,58.00
2022-07-28T08:02:26.944Z,58.00
2022-07-28T08:04:56.483Z,58.00
2022-07-28T08:07:24.882Z,57.90
2022-07-28T08:09:52.876Z,58.00
2022-07-28T08:12:24.974Z,58.10
2022-07-28T08:14:53.755Z,57.90
2022-07-28T08:17:25.646Z,57.90
2022-07-28T08:19:56.271Z,57.90
2022-07-28T08:22:24.436Z,57.90
2022-07-28T08:24:52.805Z,57.90
2022-07-28T08:27:20.736Z,57.90
2022-07-28T08:29:48.668Z,57.90
2022-07-28T08:32:23.791Z,57.80
2022-07-28T08:35:00.156Z,57.70
2022-07-28T08:37:39.980Z,57.60
2022-07-28T08:40:14.701Z,57.50
2022-07-28T08:42:51.608Z,57.50
2022-07-28T08:45:21.734Z,57.60
2022-07-28T08:48:07.815Z,57.60
2022-07-28T08:50:38.562Z,57.60
2022-07-28T08:53:08.706Z,57.50
2022-07-28T08:55:37.754Z,57.30
2022-07-28T08:58:05.986Z,57.10
2022-07-28T09:00:34.545Z,57.20
2022-07-28T09:03:04.399Z,57.20
2022-07-28T09:05:33.100Z,57.30
2022-07-28T09:08:01.295Z,57.20
2022-07-28T09:10:31.055Z,57.10
2022-07-28T09:12:58.990Z,57.00
2022-07-28T09:15:27.299Z,56.90
2022-07-28T09:17:55.565Z,56.80
2022-07-28T09:20:25.094Z,56.60
2022-07-28T09:22:57.748Z,56.60
2022-07-28T09:25:26.744Z,56.50
2022-07-28T09:27:56.237Z,56.30
2022-07-28T09:30:31.948Z,56.30
2022-07-28T09:33:42.475Z,56.10
2022-07-28T09:36:02.209Z,55.90
2022-07-28T09:38:41.882Z,55.80
2022-07-28T09:41:09.824Z,55.60
2022-07-28T09:43:42.285Z,55.70
2022-07-28T09:46:12.409Z,55.50
2022-07-28T09:48:52.907Z,55.40
2022-07-28T09:51:23.030Z,55.00
2022-07-28T09:53:51.485Z,55.00
2022-07-28T09:56:19.597Z,55.00
2022-07-28T09:58:59.260Z,54.90
2022-07-28T10:01:35.261Z,54.80
2022-07-28T10:04:05.588Z,54.50
2022-07-28T10:06:37.734Z,54.50
2022-07-28T10:09:07.817Z,54.50
2022-07-28T10:11:41.357Z,54.40
2022-07-28T10:14:13.584Z,54.30
2022-07-28T10:16:44.247Z,54.10
2022-07-28T10:19:12.155Z,53.70
2022-07-28T10:21:44.069Z,53.70
2022-07-28T10:24:15.810Z,53.50
2022-07-28T10:26:45.671Z,53.50
2022-07-28T10:29:17.113Z,53.10
2022-07-28T10:31:49.762Z,53.20
2022-07-28T10:34:24.722Z,53.10
2022-07-28T10:36:55.378Z,53.10
2022-07-28T10:39:25.017Z,52.90
2022-07-28T10:41:53.940Z,52.60
2022-07-28T10:44:23.777Z,52.50
2022-07-28T10:46:53.077Z,52.40
2022-07-28T10:49:22.107Z,52.20
2022-07-28T10:52:15.223Z,52.20
2022-07-28T10:54:49.835Z,52.10
2022-07-28T10:57:18.838Z,51.70
2022-07-28T11:00:24.445Z,51.60
2022-07-28T11:02:58.810Z,51.40
2022-07-28T11:05:32.202Z,51.30
2022-07-28T11:08:02.100Z,51.20
2022-07-28T11:10:31.129Z,51.00
2022-07-28T11:13:00.572Z,51.00
2022-07-28T11:15:38.209Z,50.90
2022-07-28T11:18:08.940Z,50.50
2022-07-28T11:21:05.536Z,50.60
2022-07-28T11:23:47.693Z,50.10
2022-07-28T11:26:34.775Z,50.40
2022-07-28T11:29:22.394Z,50.30
2022-07-28T11:32:07.995Z,50.10
2022-07-28T11:35:18.670Z,50.10
2022-07-28T11:38:12.151Z,50.20
2022-07-28T11:40:42.824Z,50.20
2022-07-28T11:43:36.116Z,50.20
2022-07-28T11:46:33.366Z,50.20
2022-07-28T11:49:23.029Z,50.20
2022-07-28T11:52:10.738Z,50.20
2022-07-28T11:54:40.456Z,50.10
2022-07-28T11:57:11.705Z,50.20
2022-07-28T11:59:50.178Z,50.10
2022-07-28T12:02:19.844Z,50.20
2022-07-28T12:05:05.578Z,50.20
2022-07-28T12:07:39.089Z,50.00
2022-07-28T12:10:56.626Z,49.90
2022-07-28T12:13:28.846Z,49.90
2022-07-28T12:15:56.974Z,50.00
2022-07-28T12:18:25.311Z,49.80
2022-07-28T12:20:55.701Z,49.70
2022-07-28T12:23:34.957Z,49.60
2022-07-28T12:26:07.375Z,49.50
2022-07-28T12:28:38.133Z,49.30
2022-07-28T12:31:13.217Z,49.40
2022-07-28T12:33:41.437Z,49.10
2022-07-28T12:36:11.320Z,49.10
2022-07-28T12:38:39.381Z,49.20
2022-07-28T12:41:15.496Z,49.20
2022-07-28T12:43:51.229Z,48.80
2022-07-28T12:46:25.068Z,49.10
2022-07-28T12:48:57.318Z,49.20
2022-07-28T12:51:34.477Z,49.00
2022-07-28T12:54:02.930Z,49.00
2022-07-28T12:56:31.251Z,48.90
2022-07-28T12:59:07.008Z,49.00
2022-07-28T13:01:49.082Z,49.00
2022-07-28T13:04:38.655Z,48.80
2022-07-28T13:07:10.727Z,48.40
2022-07-28T13:09:46.338Z,48.70
2022-07-28T13:12:20.593Z,48.80
2022-07-28T13:14:52.143Z,48.70
2022-07-28T13:17:21.397Z,48.70
2022-07-28T13:19:49.784Z,48.60
2022-07-28T13:22:28.589Z,48.50
2022-07-28T13:24:57.896Z,48.20
2022-07-28T13:27:26.069Z,48.30
2022-07-28T13:29:54.888Z,48.40
2022-07-28T13:32:23.045Z,48.40
2022-07-28T13:34:51.425Z,48.30
2022-07-28T13:37:20.432Z,48.20
2022-07-28T13:39:54.131Z,48.00
2022-07-28T13:42:23.550Z,48.00
2022-07-28T13:44:52.045Z,47.80
2022-07-28T13:47:20.822Z,48.00
2022-07-28T13:49:48.774Z,48.10
2022-07-28T13:52:32.773Z,48.10
2022-07-28T13:55:05.923Z,47.90
2022-07-28T13:57:35.772Z,47.80
2022-07-28T14:00:07.898Z,47.70
2022-07-28T14:02:36.489Z,47.70
2022-07-28T14:05:05.571Z,47.80
2022-07-28T14:07:33.509Z,47.80
2022-07-28T14:10:03.425Z,47.90
2022-07-28T14:12:37.544Z,47.90
2022-07-28T14:15:09.696Z,47.70
2022-07-28T14:17:44.243Z,47.80
2022-07-28T14:20:14.433Z,47.80
2022-07-28T14:22:42.550Z,47.80
2022-07-28T14:25:19.801Z,47.50
2022-07-28T14:27:49.431Z,47.70
2022-07-28T14:30:17.910Z,47.70
2022-07-28T14:32:45.784Z,47.70
2022-07-28T14:35:13.792Z,47.70
2022-07-28T14:38:11.562Z,47.60
2022-07-28T14:40:31.852Z,47.50
2022-07-28T14:43:00.817Z,47.50
2022-07-28T14:45:29.812Z,47.40
2022-07-28T14:47:57.973Z,47.50
2022-07-28T14:50:26.154Z,47.60
2022-07-28T14:52:54.174Z,47.60
2022-07-28T14:55:22.217Z,47.30
2022-07-28T14:57:54.907Z,47.40
2022-07-28T15:00:25.116Z,47.50
2022-07-28T15:02:53.466Z,47.50
2022-07-28T15:05:22.763Z,47.60
2022-07-28T15:07:52.065Z,47.50
2022-07-28T15:10:20.458Z,47.50
2022-07-28T15:12:49.896Z,47.30
2022-07-28T15:15:21.127Z,47.20
2022-07-28T15:17:49.061Z,47.30
2022-07-28T15:20:17.182Z,47.30
2022-07-28T15:22:45.121Z,47.20
2022-07-28T15:25:13.023Z,47.10
2022-07-28T15:27:45.651Z,47.10
2022-07-28T15:30:14.842Z,47.20
2022-07-28T15:32:57.049Z,47.10
2022-07-28T15:35:25.614Z,47.00
2022-07-28T15:37:53.764Z,47.10
2022-07-28T15:40:22.109Z,47.00
2022-07-28T15:42:50.096Z,46.70
2022-07-28T15:45:18.355Z,46.60
2022-07-28T15:47:47.602Z,46.50
2022-07-28T15:50:15.455Z,46.50
2022-07-28T15:52:43.367Z,46.30
2022-07-28T15:55:11.351Z,46.30
2022-07-28T15:57:39.745Z,46.20
2022-07-28T16:00:10.047Z,46.30
2022-07-28T16:02:38.016Z,46.40
2022-07-28T16:05:07.814Z,46.40
2022-07-28T16:07:36.036Z,46.40
2022-07-28T16:10:04.899Z,46.40
2022-07-28T16:12:33.387Z,46.40
2022-07-28T16:15:01.315Z,46.50
2022-07-28T16:17:29.341Z,46.50
2022-07-28T16:20:02.504Z,46.70
2022-07-28T16:22:32.187Z,46.70
2022-07-28T16:25:00.151Z,46.70
2022-07-28T16:27:28.188Z,46.80
2022-07-28T16:29:56.156Z,46.80
2022-07-28T16:32:24.773Z,46.80
2022-07-28T16:34:53.993Z,46.80
2022-07-28T16:37:22.438Z,46.90
2022-07-28T16:39:51.685Z,47.00
2022-07-28T16:42:19.688Z,47.00
2022-07-28T16:44:47.692Z,47.00
2022-07-28T16:47:15.693Z,47.10
2022-07-28T16:49:46.118Z,47.10
2022-07-28T16:52:14.712Z,47.10
2022-07-28T16:54:42.925Z,47.10
2022-07-28T16:57:12.285Z,47.10
2022-07-28T16:59:48.073Z,47.10
2022-07-28T17:02:17.455Z,47.10
2022-07-28T17:04:45.512Z,47.10
2022-07-28T17:07:13.490Z,47.10
2022-07-28T17:09:41.380Z,47.10
2022-07-28T17:12:10.115Z,47.10
2022-07-28T17:14:39.400Z,47.10
2022-07-28T17:17:07.427Z,47.20
2022-07-28T17:19:35.661Z,47.20
2022-07-28T17:22:07.023Z,47.30
2022-07-28T17:24:35.325Z,47.20
2022-07-28T17:29:52.933Z,47.20
2022-07-28T17:32:21.012Z,47.30
2022-07-28T17:34:50.944Z,47.30
2022-07-28T17:37:18.979Z,47.20
2022-07-28T17:39:46.994Z,47.30
2022-07-28T17:42:14.868Z,47.30
2022-07-28T17:44:42.740Z,47.30
2022-07-28T17:47:12.157Z,47.30
2022-07-28T17:49:45.199Z,47.20
2022-07-28T17:52:13.567Z,47.30
2022-07-28T17:54:58.877Z,47.30
2022-07-28T17:57:27.692Z,47.30
2022-07-28T17:59:58.381Z,47.30
2022-07-28T18:02:27.748Z,47.40
2022-07-28T18:04:55.850Z,47.40
2022-07-28T18:07:23.771Z,47.50
2022-07-28T18:09:51.752Z,47.50
2022-07-28T18:12:19.636Z,47.60
2022-07-28T18:14:47.596Z,47.60
2022-07-28T18:17:15.671Z,47.70
2022-07-28T18:19:45.687Z,47.70
2022-07-28T18:22:13.783Z,47.70
2022-07-28T18:24:41.708Z,47.80
2022-07-28T18:27:10.080Z,47.80
2022-07-28T18:29:39.007Z,48.00
2022-07-28T18:32:10.077Z,48.00
2022-07-28T18:34:39.149Z,48.00
2022-07-28T18:37:08.623Z,48.00
2022-07-28T18:39:36.496Z,48.10
2022-07-28T18:42:04.697Z,48.20
2022-07-28T18:44:32.663Z,48.20
2022-07-28T18:47:01.731Z,48.30
2022-07-28T18:49:29.751Z,48.30
2022-07-28T18:52:07.877Z,48.40
2022-07-28T18:54:35.876Z,48.40
2022-07-28T18:57:03.810Z,48.50
2022-07-28T18:59:32.509Z,48.50
2022-07-28T19:02:00.516Z,48.50
2022-07-28T19:04:28.504Z,48.60
2022-07-28T19:06:56.720Z,48.60
2022-07-28T19:09:26.197Z,48.70
2022-07-28T19:11:55.336Z,48.70
2022-07-28T19:14:23.309Z,48.80
2022-07-28T19:16:51.321Z,48.80
2022-07-28T19:19:19.393Z,48.80
2022-07-28T19:21:48.839Z,48.90
2022-07-28T19:24:17.882Z,48.90
2022-07-28T19:26:48.331Z,49.00
2022-07-28T19:29:16.507Z,49.00
2022-07-28T19:31:44.924Z,49.10
2022-07-28T19:34:13.314Z,49.10
2022-07-28T19:36:41.702Z,49.20
2022-07-28T19:39:10.422Z,49.20
2022-07-28T19:41:38.535Z,49.30
2022-07-28T19:44:07.931Z,49.50
2022-07-28T19:46:35.876Z,49.60
2022-07-28T19:49:07.618Z,49.60
2022-07-28T19:51:35.695Z,49.70
2022-07-28T19:54:04.015Z,49.70
2022-07-28T19:56:31.903Z,49.80
2022-07-28T19:59:00.303Z,49.80
2022-07-28T20:01:29.984Z,49.90
2022-07-28T20:04:00.564Z,49.90
2022-07-28T20:06:32.430Z,50.00
2022-07-28T20:09:01.238Z,50.00
2022-07-28T20:11:29.198Z,50.10
2022-07-28T20:13:57.156Z,50.10
2022-07-28T20:16:25.481Z,50.20
2022-07-28T20:18:56.795Z,50.30
2022-07-28T20:21:26.105Z,50.30
2022-07-28T20:23:55.001Z,50.40
2022-07-28T20:26:23.532Z,50.50
2022-07-28T20:28:52.052Z,50.50
2022-07-28T20:31:20.933Z,50.50
2022-07-28T20:33:49.119Z,50.60
2022-07-28T20:36:18.472Z,50.60
2022-07-28T20:38:46.433Z,50.70
2022-07-28T20:41:16.280Z,50.80
2022-07-28T20:43:44.257Z,50.90
2022-07-28T20:46:12.256Z,51.00
2022-07-28T20:48:40.281Z,51.00
2022-07-28T20:51:08.346Z,51.10
2022-07-28T20:53:38.150Z,51.40
2022-07-28T20:56:06.604Z,51.50
2022-07-28T20:58:34.641Z,51.60
2022-07-28T21:01:02.673Z,51.70
2022-07-28T21:03:30.638Z,51.80
2022-07-28T21:05:58.542Z,51.90
2022-07-28T21:08:26.458Z,51.90
2022-07-28T21:10:56.753Z,52.00
2022-07-28T21:13:24.973Z,52.10
2022-07-28T21:15:53.222Z,52.10
2022-07-28T21:18:21.177Z,52.30
2022-07-28T21:20:49.192Z,52.30
2022-07-28T21:23:18.203Z,52.40
2022-07-28T21:25:46.566Z,52.50
2022-07-28T21:28:33.390Z,52.60
2022-07-28T21:31:01.677Z,52.80
2022-07-28T21:33:29.674Z,52.90
2022-07-28T21:35:57.705Z,53.00
2022-07-28T21:38:25.581Z,53.10
2022-07-28T21:40:53.601Z,53.10
2022-07-28T21:43:22.968Z,53.20
2022-07-28T21:45:51.108Z,53.20
2022-07-28T21:48:23.179Z,53.30
2022-07-28T21:50:51.137Z,53.40
2022-07-28T21:53:19.236Z,53.40
2022-07-28T21:55:48.506Z,53.40
2022-07-28T21:58:17.169Z,53.50
2022-07-28T22:00:46.548Z,53.60
2022-07-28T22:03:14.482Z,53.70
2022-07-28T22:05:42.878Z,53.70
2022-07-28T22:08:10.841Z,53.80
2022-07-28T22:10:38.776Z,53.70
2022-07-28T22:13:06.655Z,53.70
2022-07-28T22:15:34.809Z,53.50
2022-07-28T22:18:04.227Z,53.40
2022-07-28T22:20:32.116Z,53.40
2022-07-28T22:23:00.158Z,53.30
2022-07-28T22:25:28.145Z,53.20
2022-07-28T22:27:56.123Z,53.10
2022-07-28T22:30:24.322Z,53.10
2022-07-28T22:32:52.204Z,52.90
2022-07-28T22:35:21.498Z,52.90
2022-07-28T22:37:49.467Z,53.00
2022-07-28T22:40:17.633Z,52.90
2022-07-28T22:42:46.036Z,52.80
2022-07-28T22:45:13.960Z,52.80
2022-07-28T22:47:42.614Z,52.80
2022-07-28T22:50:11.406Z,52.70
2022-07-28T22:52:40.647Z,52.70
2022-07-28T22:55:10.562Z,52.70
2022-07-28T22:57:38.569Z,52.60
2022-07-28T23:00:07.983Z,52.60
2022-07-28T23:02:37.376Z,52.50
2022-07-28T23:05:06.058Z,52.40
2022-07-28T23:07:51.308Z,52.40
2022-07-28T23:10:22.838Z,52.40
2022-07-28T23:12:50.861Z,52.40
2022-07-28T23:15:18.884Z,52.30
2022-07-28T23:17:46.744Z,52.30
2022-07-28T23:20:14.862Z,52.30
2022-07-28T23:22:42.741Z,52.20
2022-07-28T23:25:11.111Z,52.20
2022-07-28T23:27:40.414Z,52.20
2022-07-28T23:30:09.262Z,52.20
2022-07-28T23:32:37.168Z,52.20
2022-07-28T23:35:05.996Z,52.10
2022-07-28T23:37:34.388Z,52.10
2022-07-28T23:40:02.405Z,52.10
2022-07-28T23:42:30.334Z,52.00
2022-07-28T23:44:59.606Z,51.90
2022-07-28T23:47:27.581Z,51.80
2022-07-28T23:49:55.506Z,51.80
2022-07-28T23:52:23.525Z,51.80
2022-07-28T23:54:51.419Z,51.70
2022-07-28T23:57:19.657Z,51.80
2022-07-28T23:59:47.517Z,51.90
